createdAt,value
2019-04-03T00:00:36.621Z,67.40
2019-04-03T00:03:04.739Z,68.00
2019-04-03T00:05:31.306Z,67.70
2019-04-03T00:07:57.877Z,68.40
2019-04-03T00:10:24.461Z,68.10
2019-04-03T00:12:51.217Z,69.00
2019-04-03T00:15:17.809Z,68.60
2019-04-03T00:17:45.994Z,68.70
2019-04-03T00:20:12.307Z,69.00
2019-04-03T00:22:38.730Z,68.90
2019-04-03T00:25:05.861Z,69.20
2019-04-03T00:27:32.113Z,69.20
2019-04-03T00:29:58.583Z,69.30
2019-04-03T00:32:24.833Z,69.40
2019-04-03T00:34:51.772Z,69.60
2019-04-03T00:37:19.417Z,69.50
2019-04-03T00:39:45.654Z,69.60
2019-04-03T00:42:11.944Z,69.80
2019-04-03T00:44:38.394Z,69.60
2019-04-03T00:47:04.831Z,69.50
2019-04-03T00:49:31.281Z,69.80
2019-04-03T00:51:58.092Z,70.30
2019-04-03T00:54:24.758Z,70.20
2019-04-03T00:56:52.609Z,70.40
2019-04-03T00:59:19.049Z,70.50
2019-04-03T01:01:45.377Z,70.70
2019-04-03T01:04:11.753Z,71.10
2019-04-03T01:06:38.110Z,71.20
2019-04-03T01:09:06.038Z,71.00
2019-04-03T01:11:32.309Z,71.00
2019-04-03T01:13:59.728Z,71.20
2019-04-03T01:16:26.895Z,71.30
2019-04-03T01:18:53.196Z,71.90
2019-04-03T01:21:19.390Z,72.00
2019-04-03T01:23:45.741Z,71.90
2019-04-03T01:26:12.016Z,72.20
2019-04-03T01:28:38.469Z,72.40
2019-04-03T01:31:06.104Z,72.50
2019-04-03T01:33:32.477Z,72.90
2019-04-03T01:35:59.196Z,72.90
2019-04-03T01:38:25.533Z,73.40
2019-04-03T01:40:51.977Z,73.50
2019-04-03T01:43:18.232Z,73.40
2019-04-03T01:45:44.577Z,73.40
2019-04-03T01:48:11.061Z,73.40
2019-04-03T01:50:37.679Z,73.60
2019-04-03T01:53:04.139Z,73.80
2019-04-03T01:55:30.601Z,73.80
2019-04-03T01:57:56.840Z,74.20
2019-04-03T02:00:23.297Z,74.70
2019-04-03T02:02:49.644Z,74.90
2019-04-03T02:05:16.113Z,74.60
2019-04-03T02:07:44.216Z,74.60
2019-04-03T02:10:19.837Z,74.90
2019-04-03T02:12:46.261Z,74.50
2019-04-03T02:15:12.601Z,74.80
2019-04-03T02:17:39.140Z,75.20
2019-04-03T02:20:05.564Z,75.30
2019-04-03T02:22:31.809Z,75.50
2019-04-03T02:24:58.059Z,75.20
2019-04-03T02:27:24.395Z,75.60
2019-04-03T02:29:50.752Z,75.80
2019-04-03T02:32:17.332Z,75.80
2019-04-03T02:34:43.610Z,75.90
2019-04-03T02:37:09.958Z,76.00
2019-04-03T02:39:36.725Z,76.10
2019-04-03T02:42:03.137Z,76.00
2019-04-03T02:44:29.464Z,76.50
2019-04-03T02:46:59.448Z,76.50
2019-04-03T02:49:24.280Z,76.70
2019-04-03T02:51:53.280Z,76.20
2019-04-03T02:54:26.994Z,76.40
2019-04-03T02:56:54.732Z,76.90
2019-04-03T02:59:21.011Z,76.90
2019-04-03T03:01:47.483Z,76.90
2019-04-03T03:04:13.821Z,77.00
2019-04-03T03:06:40.309Z,77.50
2019-04-03T03:09:06.739Z,77.40
2019-04-03T03:11:33.254Z,77.30
2019-04-03T03:14:00.398Z,77.50
2019-04-03T03:16:26.991Z,77.70
2019-04-03T03:18:53.527Z,77.90
2019-04-03T03:21:20.422Z,78.00
2019-04-03T03:23:47.930Z,78.10
2019-04-03T03:26:14.673Z,78.30
2019-04-03T03:28:41.552Z,78.80
2019-04-03T03:31:09.710Z,78.40
2019-04-03T03:33:40.092Z,78.30
2019-04-03T03:36:04.961Z,78.50
2019-04-03T03:38:32.049Z,78.70
2019-04-03T03:40:58.789Z,78.60
2019-04-03T03:43:25.550Z,78.70
2019-04-03T03:45:53.740Z,78.90
2019-04-03T03:48:20.813Z,79.20
2019-04-03T03:50:47.831Z,79.10
2019-04-03T03:53:14.490Z,79.20
2019-04-03T03:55:41.330Z,79.20
2019-04-03T03:58:12.501Z,79.20
2019-04-03T04:00:37.692Z,79.30
2019-04-03T04:03:04.302Z,79.30
2019-04-03T04:05:30.810Z,79.50
2019-04-03T04:07:57.065Z,79.90
2019-04-03T04:10:27.038Z,79.80
2019-04-03T04:12:53.703Z,80.30
2019-04-03T04:15:20.259Z,80.10
2019-04-03T04:17:50.447Z,80.10
2019-04-03T04:20:14.838Z,80.20
2019-04-03T04:22:42.289Z,80.40
2019-04-03T04:25:08.835Z,80.40
2019-04-03T04:27:37.838Z,80.30
2019-04-03T04:30:04.633Z,80.40
2019-04-03T04:32:31.192Z,80.40
2019-04-03T04:34:57.416Z,80.60
2019-04-03T04:37:26.040Z,80.50
2019-04-03T04:39:51.945Z,80.50
2019-04-03T04:42:18.293Z,80.30
2019-04-03T04:44:44.842Z,80.30
2019-04-03T04:47:11.177Z,80.40
2019-04-03T04:49:37.423Z,80.20
2019-04-03T04:52:03.890Z,80.10
2019-04-03T04:54:31.009Z,80.10
2019-04-03T04:56:57.704Z,80.10
2019-04-03T04:59:24.251Z,80.10
2019-04-03T05:01:50.697Z,79.90
2019-04-03T05:04:17.161Z,79.80
2019-04-03T05:06:43.526Z,79.60
2019-04-03T05:09:09.973Z,79.70
2019-04-03T05:11:38.275Z,79.60
2019-04-03T05:14:04.913Z,79.70
2019-04-03T05:16:31.253Z,78.80
2019-04-03T05:19:08.668Z,78.60
2019-04-03T05:21:26.041Z,78.70
2019-04-03T05:23:52.393Z,78.00
2019-04-03T05:26:21.034Z,78.00
2019-04-03T05:28:55.640Z,78.00
2019-04-03T05:31:14.959Z,77.40
2019-04-03T05:33:42.319Z,76.80
2019-04-03T05:36:08.781Z,76.30
2019-04-03T05:38:37.635Z,76.30
2019-04-03T05:41:03.730Z,75.30
2019-04-03T05:43:30.807Z,75.60
2019-04-03T05:45:57.928Z,75.10
2019-04-03T05:48:24.358Z,74.70
2019-04-03T05:50:50.757Z,72.70
2019-04-03T05:53:17.196Z,66.90
2019-04-03T05:55:43.871Z,63.90
2019-04-03T05:58:10.383Z,62.00
2019-04-03T06:00:38.185Z,61.50
2019-04-03T06:03:04.861Z,58.70
2019-04-03T06:05:31.316Z,55.90
2019-04-03T06:07:57.634Z,54.00
2019-04-03T06:10:27.082Z,51.80
2019-04-03T06:12:52.636Z,49.80
2019-04-03T06:15:21.697Z,49.60
2019-04-03T06:17:49.951Z,48.70
2019-04-03T06:20:15.558Z,48.00
2019-04-03T06:22:42.061Z,47.50
2019-04-03T06:25:12.683Z,47.70
2019-04-03T06:27:36.849Z,48.90
2019-04-03T06:30:06.697Z,49.50
2019-04-03T06:32:33.221Z,50.60
2019-04-03T06:34:59.845Z,51.00
2019-04-03T06:37:26.104Z,50.50
2019-04-03T06:39:52.462Z,51.70
2019-04-03T06:42:19.088Z,51.50
2019-04-03T06:44:45.607Z,51.30
2019-04-03T06:47:11.954Z,51.40
2019-04-03T06:49:40.572Z,51.60
2019-04-03T06:52:06.528Z,51.00
2019-04-03T06:54:32.681Z,50.80
2019-04-03T06:56:59.356Z,49.70
2019-04-03T06:59:25.839Z,50.20
2019-04-03T07:01:53.268Z,50.30
2019-04-03T07:04:20.117Z,50.80
2019-04-03T07:06:46.549Z,51.20
2019-04-03T07:09:22.802Z,52.50
2019-04-03T07:11:43.210Z,53.20
2019-04-03T07:14:09.404Z,54.20
2019-04-03T07:16:38.089Z,55.10
2019-04-03T07:19:04.145Z,56.40
2019-04-03T07:21:30.473Z,57.80
2019-04-03T07:23:56.833Z,58.30
2019-04-03T07:26:23.275Z,60.30
2019-04-03T07:28:49.625Z,61.20
2019-04-03T07:31:15.964Z,61.60
2019-04-03T07:33:42.341Z,62.30
2019-04-03T07:36:10.885Z,62.70
2019-04-03T07:38:36.829Z,62.80
2019-04-03T07:41:03.417Z,63.00
2019-04-03T07:43:29.761Z,63.20
2019-04-03T07:45:56.188Z,63.40
2019-04-03T07:48:22.866Z,63.60
2019-04-03T07:50:49.203Z,63.70
2019-04-03T07:53:15.660Z,63.80
2019-04-03T07:55:44.198Z,63.80
2019-04-03T07:58:10.253Z,63.40
2019-04-03T08:00:38.548Z,68.50
2019-04-03T08:03:05.061Z,69.30
2019-04-03T08:05:31.682Z,66.10
2019-04-03T08:07:58.038Z,63.60
2019-04-03T08:10:24.392Z,61.40
2019-04-03T08:12:50.746Z,58.00
2019-04-03T08:15:17.081Z,56.80
2019-04-03T08:17:43.564Z,57.60
2019-04-03T08:20:10.384Z,58.70
2019-04-03T08:22:36.904Z,60.50
2019-04-03T08:25:05.549Z,61.90
2019-04-03T08:27:31.912Z,62.20
2019-04-03T08:29:58.157Z,62.60
2019-04-03T08:32:24.402Z,63.10
2019-04-03T08:34:51.053Z,63.10
2019-04-03T08:37:28.445Z,63.10
2019-04-03T08:39:48.465Z,63.40
2019-04-03T08:42:13.800Z,62.90
2019-04-03T08:44:39.997Z,63.10
2019-04-03T08:47:06.619Z,63.20
2019-04-03T08:49:33.017Z,63.40
2019-04-03T08:51:59.289Z,63.40
2019-04-03T08:54:26.001Z,63.60
2019-04-03T08:56:52.445Z,63.30
2019-04-03T08:59:18.682Z,63.40
2019-04-03T09:01:45.077Z,63.90
2019-04-03T09:04:11.442Z,63.90
2019-04-03T09:06:37.789Z,63.40
2019-04-03T09:09:07.544Z,63.40
2019-04-03T09:11:36.104Z,63.60
2019-04-03T09:14:02.220Z,63.50
2019-04-03T09:16:31.287Z,63.50
2019-04-03T09:18:56.924Z,63.70
2019-04-03T09:21:23.400Z,64.20
2019-04-03T09:23:49.801Z,64.00
2019-04-03T09:26:16.396Z,63.70
2019-04-03T09:28:42.923Z,63.40
2019-04-03T09:31:09.950Z,63.40
2019-04-03T09:33:36.237Z,63.50
2019-04-03T09:36:04.326Z,63.60
2019-04-03T09:38:30.972Z,63.70
2019-04-03T09:40:57.461Z,63.70
2019-04-03T09:43:23.658Z,63.30
2019-04-03T09:45:50.188Z,63.10
2019-04-03T09:48:16.459Z,63.10
2019-04-03T09:50:45.730Z,62.90
2019-04-03T09:53:11.558Z,62.80
2019-04-03T09:55:38.297Z,62.90
2019-04-03T09:58:04.961Z,62.90
2019-04-03T10:00:31.867Z,62.70
2019-04-03T10:02:58.533Z,62.70
2019-04-03T10:05:24.820Z,62.30
2019-04-03T10:07:51.534Z,62.70
2019-04-03T10:10:19.282Z,62.60
2019-04-03T10:12:47.948Z,62.30
2019-04-03T10:15:14.429Z,61.80
2019-04-03T10:17:40.865Z,61.70
2019-04-03T10:20:08.307Z,61.60
2019-04-03T10:22:35.228Z,61.20
2019-04-03T10:25:04.853Z,61.40
2019-04-03T10:27:30.274Z,60.00
2019-04-03T10:29:56.592Z,59.70
2019-04-03T10:32:22.913Z,59.50
2019-04-03T10:34:49.501Z,59.10
2019-04-03T10:37:16.107Z,59.10
2019-04-03T10:39:44.692Z,58.80
2019-04-03T10:42:10.826Z,58.70
2019-04-03T10:44:37.360Z,59.40
2019-04-03T10:47:03.826Z,58.70
2019-04-03T10:49:32.490Z,58.00
2019-04-03T10:51:58.666Z,57.50
2019-04-03T10:54:25.775Z,57.50
2019-04-03T10:56:52.107Z,57.00
2019-04-03T10:59:18.992Z,57.70
2019-04-03T11:01:45.646Z,56.80
2019-04-03T11:04:12.161Z,56.60
2019-04-03T11:06:38.585Z,56.50
2019-04-03T11:09:07.672Z,55.70
2019-04-03T11:11:36.517Z,55.80
2019-04-03T11:14:03.194Z,54.20
2019-04-03T11:16:30.375Z,54.20
2019-04-03T11:18:59.914Z,54.50
2019-04-03T11:21:24.694Z,54.70
2019-04-03T11:23:51.061Z,54.40
2019-04-03T11:26:18.335Z,54.40
2019-04-03T11:28:45.938Z,54.50
2019-04-03T11:31:23.928Z,54.50
2019-04-03T11:33:40.545Z,54.50
2019-04-03T11:36:07.108Z,54.00
2019-04-03T11:38:33.443Z,53.80
2019-04-03T11:41:11.362Z,53.80
2019-04-03T11:43:30.827Z,53.70
2019-04-03T11:45:56.200Z,53.10
2019-04-03T11:48:22.542Z,53.20
2019-04-03T11:50:48.984Z,53.80
2019-04-03T11:53:15.232Z,54.80
2019-04-03T11:55:42.037Z,54.00
2019-04-03T11:58:09.105Z,53.30
2019-04-03T12:00:37.612Z,54.20
2019-04-03T12:03:03.969Z,54.20
2019-04-03T12:05:30.538Z,54.60
2019-04-03T12:07:57.434Z,54.20
2019-04-03T12:10:25.916Z,53.90
2019-04-03T12:12:52.782Z,54.00
2019-04-03T12:15:21.568Z,54.60
2019-04-03T12:17:47.523Z,55.10
2019-04-03T12:20:15.883Z,55.00
2019-04-03T12:22:42.831Z,55.40
2019-04-03T12:25:09.448Z,54.90
2019-04-03T12:27:36.666Z,55.70
2019-04-03T12:30:07.622Z,55.20
2019-04-03T12:32:38.513Z,55.50
2019-04-03T12:35:04.746Z,55.90
2019-04-03T12:37:31.344Z,55.80
2019-04-03T12:40:00.221Z,56.40
2019-04-03T12:42:26.081Z,55.80
2019-04-03T12:44:54.710Z,56.00
2019-04-03T12:47:20.596Z,56.50
2019-04-03T12:49:47.229Z,56.50
2019-04-03T12:52:13.560Z,56.80
2019-04-03T12:54:40.129Z,57.40
2019-04-03T12:57:06.813Z,57.80
2019-04-03T12:59:33.176Z,57.40
2019-04-03T13:01:59.524Z,57.30
2019-04-03T13:04:29.828Z,56.70
2019-04-03T13:06:54.271Z,56.50
2019-04-03T13:09:20.798Z,57.40
2019-04-03T13:11:49.918Z,58.60
2019-04-03T13:14:24.225Z,58.10
2019-04-03T13:16:46.474Z,58.80
2019-04-03T13:19:14.654Z,58.20
2019-04-03T13:21:40.232Z,58.40
2019-04-03T13:24:06.853Z,58.20
2019-04-03T13:26:33.721Z,56.60
2019-04-03T13:29:00.169Z,56.20
2019-04-03T13:31:26.421Z,56.30
2019-04-03T13:33:53.279Z,56.10
2019-04-03T13:36:19.804Z,56.60
2019-04-03T13:38:46.156Z,57.40
2019-04-03T13:41:12.644Z,57.10
2019-04-03T13:43:39.494Z,58.20
2019-04-03T13:46:05.958Z,58.80
2019-04-03T13:48:32.401Z,59.40
2019-04-03T13:50:59.109Z,59.70
2019-04-03T13:53:25.825Z,60.00
2019-04-03T13:55:52.640Z,59.20
2019-04-03T13:58:21.192Z,60.10
2019-04-03T14:00:57.843Z,59.10
2019-04-03T14:03:17.814Z,58.90
2019-04-03T14:05:43.954Z,58.90
2019-04-03T14:08:12.134Z,59.10
2019-04-03T14:10:38.711Z,59.10
2019-04-03T14:13:05.123Z,58.70
2019-04-03T14:15:31.363Z,58.70
2019-04-03T14:17:59.163Z,59.20
2019-04-03T14:20:25.973Z,59.60
2019-04-03T14:22:52.599Z,59.40
2019-04-03T14:25:22.594Z,59.50
2019-04-03T14:27:47.738Z,59.50
2019-04-03T14:30:14.417Z,60.50
2019-04-03T14:32:41.529Z,60.50
2019-04-03T14:35:38.441Z,60.70
2019-04-03T14:37:37.477Z,61.20
2019-04-03T14:40:05.717Z,60.90
2019-04-03T14:42:32.188Z,61.20
2019-04-03T14:44:58.842Z,60.60
2019-04-03T14:47:27.499Z,60.70
2019-04-03T14:49:53.803Z,60.90
2019-04-03T14:52:20.101Z,60.80
2019-04-03T14:54:46.574Z,60.20
2019-04-03T14:57:20.387Z,60.40
2019-04-03T14:59:41.138Z,60.90
2019-04-03T15:02:07.915Z,60.70
2019-04-03T15:04:37.118Z,60.90
2019-04-03T15:07:08.361Z,61.20
2019-04-03T15:09:31.076Z,61.30
2019-04-03T15:11:57.302Z,60.90
2019-04-03T15:14:23.663Z,61.10
2019-04-03T15:16:50.833Z,61.10
2019-04-03T15:19:17.400Z,60.50
2019-04-03T15:21:44.281Z,60.60
2019-04-03T15:24:11.457Z,60.30
2019-04-03T15:26:38.484Z,60.00
2019-04-03T15:29:05.033Z,60.20
2019-04-03T15:31:31.308Z,60.00
2019-04-03T15:33:58.197Z,60.50
2019-04-03T15:36:24.434Z,59.70
2019-04-03T15:38:50.914Z,59.80
2019-04-03T15:41:17.352Z,59.70
2019-04-03T15:43:46.634Z,59.90
2019-04-03T15:46:12.173Z,59.70
2019-04-03T15:48:39.984Z,60.00
2019-04-03T15:51:07.262Z,60.50
2019-04-03T15:53:34.097Z,59.10
2019-04-03T15:56:00.462Z,59.00
2019-04-03T15:58:27.285Z,58.80
2019-04-03T16:00:53.865Z,59.20
2019-04-03T16:03:20.775Z,58.70
2019-04-03T16:05:47.254Z,59.10
2019-04-03T16:08:14.075Z,59.00
2019-04-03T16:10:40.677Z,58.90
2019-04-03T16:13:07.055Z,59.10
2019-04-03T16:15:33.537Z,59.20
2019-04-03T16:17:59.977Z,59.80
2019-04-03T16:20:26.545Z,60.10
2019-04-03T16:22:53.634Z,60.10
2019-04-03T16:25:20.264Z,60.10
2019-04-03T16:27:46.712Z,60.00
2019-04-03T16:30:15.515Z,60.00
2019-04-03T16:32:41.341Z,59.60
2019-04-03T16:35:07.859Z,60.00
2019-04-03T16:37:34.731Z,60.40
2019-04-03T16:40:04.538Z,60.40
2019-04-03T16:42:29.294Z,60.60
2019-04-03T16:44:57.786Z,60.80
2019-04-03T16:47:25.444Z,60.90
2019-04-03T16:49:54.943Z,61.30
2019-04-03T16:52:20.962Z,61.10
2019-04-03T16:54:47.418Z,61.10
2019-04-03T16:57:13.831Z,61.80
2019-04-03T16:59:40.490Z,61.70
2019-04-03T17:02:06.922Z,61.70
2019-04-03T17:04:35.648Z,62.00
2019-04-03T17:07:01.811Z,62.00
2019-04-03T17:09:28.101Z,62.30
2019-04-03T17:11:54.856Z,62.50
2019-04-03T17:14:23.865Z,62.20
2019-04-03T17:16:49.509Z,62.40
2019-04-03T17:19:17.563Z,62.60
2019-04-03T17:21:44.312Z,62.90
2019-04-03T17:24:10.861Z,62.90
2019-04-03T17:26:47.967Z,63.10
2019-04-03T17:29:06.362Z,63.20
2019-04-03T17:31:33.278Z,63.20
2019-04-03T17:33:59.513Z,63.60
2019-04-03T17:36:26.161Z,63.80
2019-04-03T17:41:30.447Z,64.50
2019-04-03T17:43:56.877Z,64.50
2019-04-03T17:46:25.291Z,64.50
2019-04-03T17:48:51.673Z,65.00
2019-04-03T17:51:17.905Z,65.10
2019-04-03T17:53:44.164Z,65.20
2019-04-03T17:56:12.327Z,65.30
2019-04-03T17:58:38.677Z,65.50
2019-04-03T18:01:05.012Z,65.80
2019-04-03T18:03:31.642Z,66.00
2019-04-03T18:05:58.048Z,65.90
2019-04-03T18:08:24.513Z,65.80
2019-04-03T18:10:51.287Z,66.10
2019-04-03T18:13:17.593Z,66.10
2019-04-03T18:15:43.837Z,66.20
2019-04-03T18:18:11.280Z,66.50
2019-04-03T18:20:37.508Z,66.40
2019-04-03T18:23:03.952Z,66.50
2019-04-03T18:25:30.396Z,66.70
2019-04-03T18:27:56.726Z,66.70
2019-04-03T18:30:23.694Z,66.50
2019-04-03T18:32:50.204Z,66.90
2019-04-03T18:35:16.628Z,67.10
2019-04-03T18:37:42.997Z,67.00
2019-04-03T18:40:09.957Z,67.00
2019-04-03T18:42:36.373Z,67.10
2019-04-03T18:45:04.517Z,67.20
2019-04-03T18:47:40.481Z,67.00
2019-04-03T18:50:00.877Z,67.20
2019-04-03T18:52:27.429Z,67.40
2019-04-03T18:54:53.823Z,67.20
2019-04-03T18:57:20.368Z,67.20
2019-04-03T18:59:46.613Z,67.20
2019-04-03T19:02:13.092Z,67.40
2019-04-03T19:04:39.335Z,67.20
2019-04-03T19:07:05.685Z,67.20
2019-04-03T19:09:32.166Z,67.40
2019-04-03T19:12:07.886Z,67.60
2019-04-03T19:14:29.386Z,67.20
2019-04-03T19:16:55.199Z,67.80
2019-04-03T19:19:23.600Z,67.70
2019-04-03T19:21:49.624Z,67.70
2019-04-03T19:24:16.065Z,67.70
2019-04-03T19:26:42.396Z,67.90
2019-04-03T19:29:08.833Z,68.00
2019-04-03T19:31:35.281Z,68.20
2019-04-03T19:34:01.666Z,68.30
2019-04-03T19:36:29.929Z,68.10
2019-04-03T19:38:56.261Z,68.30
2019-04-03T19:41:22.613Z,67.80
2019-04-03T19:43:48.978Z,68.00
2019-04-03T19:46:15.458Z,68.10
2019-04-03T19:48:41.689Z,68.40
2019-04-03T19:51:07.950Z,67.90
2019-04-03T19:53:35.827Z,67.80
2019-04-03T19:56:02.313Z,68.10
2019-04-03T19:58:29.530Z,67.70
2019-04-03T20:00:56.317Z,68.20
2019-04-03T20:03:22.752Z,68.20
2019-04-03T20:05:50.781Z,68.30
2019-04-03T20:08:18.381Z,68.40
2019-04-03T20:10:44.825Z,68.40
2019-04-03T20:13:11.196Z,68.40
2019-04-03T20:15:37.441Z,68.60
2019-04-03T20:18:03.881Z,68.50
2019-04-03T20:20:33.368Z,68.50
2019-04-03T20:22:58.286Z,68.50
2019-04-03T20:25:24.629Z,68.30
2019-04-03T20:27:52.208Z,68.70
2019-04-03T20:30:18.736Z,68.70
2019-04-03T20:32:45.095Z,68.40
2019-04-03T20:35:11.530Z,68.50
2019-04-03T20:37:37.973Z,68.70
2019-04-03T20:40:05.004Z,68.60
2019-04-03T20:42:31.364Z,68.60
2019-04-03T20:44:57.824Z,68.70
2019-04-03T20:47:26.576Z,68.60
2019-04-03T20:49:52.300Z,68.40
2019-04-03T20:52:18.736Z,68.40
2019-04-03T20:54:44.969Z,68.90
2019-04-03T20:57:13.510Z,68.50
2019-04-03T20:59:42.631Z,68.30
2019-04-03T21:02:08.271Z,68.60
2019-04-03T21:04:35.217Z,68.50
2019-04-03T21:07:01.476Z,68.50
2019-04-03T21:09:29.682Z,68.60
2019-04-03T21:11:56.060Z,68.50
2019-04-03T21:14:22.455Z,68.50
2019-04-03T21:16:48.886Z,68.50
2019-04-03T21:19:15.131Z,68.30
2019-04-03T21:21:41.645Z,68.40
2019-04-03T21:24:07.885Z,68.50
2019-04-03T21:26:34.228Z,68.30
2019-04-03T21:29:00.664Z,68.60
2019-04-03T21:31:28.205Z,68.70
2019-04-03T21:33:55.197Z,68.40
2019-04-03T21:36:21.705Z,68.40
2019-04-03T21:38:47.929Z,68.10
2019-04-03T21:41:14.273Z,68.00
2019-04-03T21:43:40.541Z,68.00
2019-04-03T21:46:06.987Z,68.10
2019-04-03T21:48:35.053Z,67.80
2019-04-03T21:51:01.682Z,67.70
2019-04-03T21:53:28.009Z,68.10
2019-04-03T21:55:54.351Z,67.90
2019-04-03T21:58:20.823Z,68.00
2019-04-03T22:00:59.976Z,68.00
2019-04-03T22:03:26.554Z,68.10
2019-04-03T22:05:55.641Z,68.00
2019-04-03T22:08:21.156Z,68.10
2019-04-03T22:10:50.354Z,68.10
2019-04-03T22:13:16.097Z,68.00
2019-04-03T22:15:45.287Z,67.90
2019-04-03T22:18:10.900Z,68.10
2019-04-03T22:20:37.230Z,68.20
2019-04-03T22:23:04.900Z,68.60
2019-04-03T22:25:31.748Z,68.50
2019-04-03T22:27:58.196Z,68.50
2019-04-03T22:30:24.447Z,68.70
2019-04-03T22:32:50.973Z,68.70
2019-04-03T22:35:17.409Z,68.70
2019-04-03T22:37:43.658Z,68.40
2019-04-03T22:40:10.881Z,68.30
2019-04-03T22:42:37.381Z,68.60
2019-04-03T22:45:03.877Z,68.50
2019-04-03T22:47:30.493Z,68.40
2019-04-03T22:49:56.718Z,68.10
2019-04-03T22:52:23.181Z,68.10
2019-04-03T22:54:49.528Z,68.30
2019-04-03T22:57:15.758Z,68.60
2019-04-03T22:59:41.988Z,68.50
2019-04-03T23:02:08.433Z,68.70
2019-04-03T23:04:34.882Z,68.70
2019-04-03T23:07:01.142Z,68.60
2019-04-03T23:09:27.529Z,68.60
2019-04-03T23:11:53.765Z,68.40
2019-04-03T23:14:20.216Z,68.40
2019-04-03T23:16:46.680Z,68.70
2019-04-03T23:19:13.089Z,68.20
2019-04-03T23:21:39.833Z,68.80
2019-04-03T23:24:06.466Z,68.60
2019-04-03T23:26:32.908Z,68.80
2019-04-03T23:28:59.241Z,69.10
2019-04-03T23:31:25.613Z,69.30
2019-04-03T23:33:52.073Z,68.90
2019-04-03T23:36:18.306Z,68.80
2019-04-03T23:38:44.757Z,68.40
2019-04-03T23:41:10.996Z,68.30
2019-04-03T23:43:39.265Z,68.50
2019-04-03T23:46:05.873Z,68.90
2019-04-03T23:48:32.303Z,68.90
2019-04-03T23:50:58.645Z,69.00
2019-04-03T23:53:25.237Z,69.20
2019-04-03T23:55:51.786Z,68.90
2019-04-03T23:58:18.125Z,68.90
